• Join FlightAware (Why Join?)
  • Login
  • US Flag 
08:59PM EDT


 

Airport Tracker/Info


-or-


 

Live Flight TrackerFlight Track Log ✈ ANZ356 ✈ 01-Aug-2013 ✈ NZCH / CHC - NZWN / WLG

Flight Track Log - Related Links

Times and Time Zones

All times are in EDT time to prevent confusion due to time zone crossing. See the ANZ356 flight status page for this flight to view local times or setup timezone preferences in your user account.

Time Position Orientation Groundspeed Altitude Reporting Facility
EDT Latitude Longitude Course Direction KTS MPH feet Rate Location/Type
01:39AM -43.4840 172.5370 36° Northeast 145 167  Level FlightAware
01:40AM -43.4833 172.5500 36° Northeast 118 136 1,980 Level New Zealand
01:40AM -43.4790 172.5430 41° Northeast 150 173 2,580 Level FlightAware
01:40AM -43.4550 172.5710 40° Northeast 175 201 1,700 2,520 Climbing FlightAware
01:41AM -43.4390 172.5870 36° Northeast 202 232 2,400 1,860 Climbing FlightAware
01:41AM -43.4240 172.6020 36° Northeast 227 261 3,100 2,400 Climbing FlightAware
01:41AM -43.4070 172.6190 36° Northeast 244 281 3,800 3,000 Climbing FlightAware
01:41AM -43.3940 172.6320 36° Northeast 246 283 4,600 2,700 Climbing FlightAware
01:42AM -43.3600 172.6660 36° Northeast 281 323 6,000 2,580 Climbing FlightAware
01:42AM -43.3350 172.6920 37° Northeast 298 343 7,100 2,700 Climbing FlightAware
01:43AM -43.3050 172.7230 37° Northeast 313 360 8,300 3,000 Climbing FlightAware
01:43AM -43.2750 172.7530 36° Northeast 323 372 9,600 3,540 Climbing FlightAware
01:44AM -43.2333 172.7833 36° Northeast 325 374 3,720 Descending New Zealand
01:44AM -43.2340 172.7950 36° Northeast 326 375 11,800 23,280 Climbing FlightAware
01:44AM -43.1980 172.8310 36° Northeast 334 384 13,600 3,300 Climbing FlightAware
01:45AM -43.1450 172.8840 36° Northeast 356 410 15,700 3,420 Climbing FlightAware
01:46AM -43.0970 172.9320 36° Northeast 357 411 17,900 3,660 Climbing FlightAware
01:46AM -43.0520 172.9770 36° Northeast 358 412 20,000 3,000 Climbing FlightAware
01:47AM -42.9970 173.0320 36° Northeast 377 434 21,600 2,040 Climbing FlightAware
01:47AM -42.9833 173.0333 36° Northeast 374 430 1,680 Descending New Zealand
01:47AM -42.9450 173.0840 36° Northeast 399 459 22,600 22,380 Climbing FlightAware
01:48AM -42.9000 173.1333 36° Northeast 400 460 2,880 Descending New Zealand
01:48AM -42.8940 173.1360 36° Northeast 401 461 24,300 36,540 Climbing FlightAware
01:49AM -42.8320 173.1980 36° Northeast 419 482 25,600 1,980 Climbing FlightAware
01:49AM -42.7760 173.2540 36° Northeast 429 494 26,800 1,080 Climbing FlightAware
01:50AM -42.7120 173.3180 36° Northeast 431 496 27,000 120 Climbing FlightAware
01:51AM -42.6590 173.3710 36° Northeast 430 495 27,000  Level FlightAware
01:51AM -42.6070 173.4230 36° Northeast 429 494 27,000  Level FlightAware
01:51AM -42.6000 173.4333 36° Northeast 430 495  Descending New Zealand
01:52AM -42.5510 173.4780 36° Northeast 429 494 27,000 24,120 Climbing FlightAware
01:52AM -42.5000 173.5333 36° Northeast 431 496  Descending New Zealand
01:52AM -42.4890 173.5400 36° Northeast 430 495 27,000 47,640 Climbing FlightAware
01:53AM -42.4400 173.5880 36° Northeast 430 495 27,000  Level FlightAware
01:53AM -42.3820 173.6440 36° Northeast 430 495 27,000  Level FlightAware
01:54AM -42.3180 173.7040 35° Northeast 432 497 27,000  Level FlightAware
01:55AM -42.2600 173.7610 36° Northeast 434 499 27,000  Level FlightAware
01:55AM -42.2110 173.8100 37° Northeast 434 499 27,000  Level FlightAware
01:56AM -42.1550 173.8650 36° Northeast 435 501 27,000  Level FlightAware
01:56AM -42.0833 173.9333 36° Northeast 436 502  Descending New Zealand
01:56AM -42.0880 173.9300 36° Northeast 435 501 27,000 52,020 Climbing FlightAware
01:57AM -42.0410 173.9760 36° Northeast 435 501 26,900 -1,140 Descending FlightAware
01:57AM -41.9833 174.0167 36° Northeast 433 498 -1,920 Descending New Zealand
01:57AM -41.9860 174.0300 36° Northeast 422 486 25,800 37,500 Climbing FlightAware
01:58AM -41.9290 174.0860 36° Northeast 415 478 24,400 -2,520 Descending FlightAware
01:59AM -41.8680 174.1460 36° Northeast 404 465 22,700 -2,520 Descending FlightAware
01:59AM -41.8120 174.2000 36° Northeast 393 452 21,200 -2,460 Descending FlightAware
01:59AM -41.8000 174.2000 36° Northeast 397 457 -2,460 Descending New Zealand
02:00AM -41.7610 174.2490 36° Northeast 377 434 19,700 17,220 Climbing FlightAware
02:00AM -41.7000 174.2833 36° Northeast 375 432 -2,340 Descending New Zealand
02:00AM -41.7090 174.2910 36° Northeast 360 414 18,400 24,120 Climbing FlightAware
02:01AM -41.6530 174.3380 32° Northeast 354 407 16,900 -2,160 Descending FlightAware
02:02AM -41.6120 174.3760 35° Northeast 335 386 15,900 -2,520 Descending FlightAware
02:02AM -41.5700 174.4140 34° Northeast 348 400 14,200 -2,640 Descending FlightAware
02:03AM -41.5150 174.4560 30° Northeast 336 387 12,800 -2,280 Descending FlightAware
02:03AM -41.4740 174.4850 28° Northeast 328 377 11,700 -2,520 Descending FlightAware
02:04AM -41.4190 174.5220 27° Northeast 330 380 9,900 -2,580 Descending FlightAware
02:05AM -41.3780 174.5490 27° Northeast 325 374 8,700 -2,280 Descending FlightAware
02:05AM -41.3667 174.5500 27° Northeast 328 377 -2,100 Descending New Zealand
02:05AM -41.3520 174.5660 26° Northeast 316 364 8,000 13,500 Climbing FlightAware
02:05AM -41.3250 174.5830 25° Northeast 315 362 7,200 -2,220 Descending FlightAware
02:06AM -41.2930 174.6050 25° Northeast 312 359 6,300 -2,100 Descending FlightAware
02:06AM -41.2833 174.6000 25° Northeast 317 365 -2,160 Descending New Zealand
02:06AM -41.2730 174.6180 26° Northeast 306 352 5,800 11,760 Climbing FlightAware
02:06AM -41.2490 174.6340 27° Northeast 289 333 5,500 -900 Descending FlightAware
02:06AM -41.2310 174.6450 25° Northeast 277 319 5,300 -720 Descending FlightAware
02:07AM -41.2080 174.6590 25° Northeast 262 302 5,100 -780 Descending FlightAware
02:07AM -41.1870 174.6730 27° Northeast 251 289 4,800 -1,080 Descending FlightAware
02:07AM -41.1710 174.6840 27° Northeast 246 283 4,500 -960 Descending FlightAware
02:08AM -41.1630 174.6940 43° Northeast 241 277 4,400 -720 Descending FlightAware
02:08AM -41.1500 174.7250 61° Northeast 222 255 4,100 -1,080 Descending FlightAware
02:08AM -41.1480 174.7380 78° East 218 251 3,800 -1,500 Descending FlightAware
02:09AM -41.1550 174.7750 104° East 201 231 3,100 -1,200 Descending FlightAware
02:09AM -41.1640 174.7960 120° Southeast 187 215 2,800 -840 Descending FlightAware
02:09AM -41.1700 174.8040 135° Southeast 180 207 2,700 -600 Descending FlightAware
02:09AM -41.1760 174.8100 143° Southeast 174 200 2,600 -600 Descending FlightAware
02:09AM -41.1840 174.8140 159° South 167 192 2,500 -600 Descending FlightAware
02:10AM -41.1990 174.8160 174° South 167 192 2,300 -900 Descending FlightAware
02:10AM -41.2140 174.8160 180° South 158 182 1,900 -1,080 Descending FlightAware
02:11AM -41.2320 174.8150 182° South 139 160 1,500 -840 Descending FlightAware
02:11AM -41.2380 174.8140 187° South 135 155 1,400 -540 Descending FlightAware
02:11AM -41.2530 174.8130 183° South 132 152 1,200 -720 Descending FlightAware
02:11AM -41.2650 174.8120 184° South 129 148 900 -840 Descending FlightAware
02:12AM -41.2770 174.8110 184° South 116 133 700 -660 Descending FlightAware
02:12AM -41.2880 174.8100 184° South 113 130 500 -720 Descending FlightAware
02:13AM -41.3010 174.8090 183° South 113 130 200 -720 Descending FlightAware
02:13AM -41.3110 174.8080 184° South 116 133 -600 Descending FlightAware
02:13AM -41.3250 174.8070 183° South 117 135  Level FlightAware